createdAt,value
2024-02-04T00:00:06.760Z,5.73
2024-02-04T00:02:33.901Z,5.07
2024-02-04T00:05:00.555Z,4.80
2024-02-04T00:07:28.127Z,4.57
2024-02-04T00:09:54.803Z,4.70
2024-02-04T00:12:21.714Z,4.47
2024-02-04T00:14:50.750Z,4.07
2024-02-04T00:17:17.819Z,3.00
2024-02-04T00:19:44.854Z,2.80
2024-02-04T00:22:11.604Z,6.00
2024-02-04T00:24:38.327Z,2.57
2024-02-04T00:27:05.197Z,2.90
2024-02-04T00:29:31.650Z,2.43
2024-02-04T00:31:58.113Z,2.50
2024-02-04T00:34:24.713Z,2.10
2024-02-04T00:36:51.304Z,2.60
2024-02-04T00:39:17.834Z,2.50
2024-02-04T00:41:44.458Z,2.90
2024-02-04T00:44:11.106Z,2.63
2024-02-04T00:46:37.597Z,3.33
2024-02-04T00:49:04.364Z,3.43
2024-02-04T00:51:31.416Z,4.10
2024-02-04T00:53:58.061Z,4.30
2024-02-04T00:56:24.775Z,4.10
2024-02-04T00:58:51.324Z,4.20
2024-02-04T01:01:18.438Z,4.80
2024-02-04T01:03:45.239Z,4.93
2024-02-04T01:06:11.999Z,5.47
2024-02-04T01:08:38.866Z,5.00
2024-02-04T01:11:06.819Z,5.10
2024-02-04T01:13:33.695Z,5.20
2024-02-04T01:16:00.311Z,4.67
2024-02-04T01:18:26.989Z,5.40
2024-02-04T01:20:53.547Z,5.20
2024-02-04T01:23:20.919Z,4.83
2024-02-04T01:25:47.467Z,4.53
2024-02-04T01:28:14.004Z,4.70
2024-02-04T01:30:40.613Z,4.70
2024-02-04T01:33:07.202Z,4.80
2024-02-04T01:35:33.728Z,5.10
2024-02-04T01:38:00.225Z,4.53
2024-02-04T01:40:27.349Z,4.90
2024-02-04T01:42:53.953Z,5.00
2024-02-04T01:45:20.457Z,5.50
2024-02-04T01:47:47.065Z,5.00
2024-02-04T01:50:13.796Z,5.17
2024-02-04T01:52:43.238Z,4.80
2024-02-04T01:55:10.573Z,5.30
2024-02-04T01:57:37.430Z,4.73
2024-02-04T02:00:10.163Z,5.07
2024-02-04T02:02:41.043Z,5.33
2024-02-04T02:05:09.554Z,4.73
2024-02-04T02:07:36.381Z,5.37
2024-02-04T02:10:03.067Z,4.80
2024-02-04T02:12:47.236Z,4.93
2024-02-04T02:15:28.708Z,5.57
2024-02-04T02:18:08.477Z,4.93
2024-02-04T02:21:06.965Z,5.00
2024-02-04T02:23:50.209Z,4.70
2024-02-04T02:26:18.134Z,5.40
2024-02-04T02:28:44.640Z,5.00
2024-02-04T02:31:11.861Z,5.17
2024-02-04T02:33:38.551Z,5.60
2024-02-04T02:36:14.170Z,5.20
2024-02-04T02:39:04.548Z,5.47
2024-02-04T02:41:32.046Z,5.00
2024-02-04T02:44:01.289Z,5.87
2024-02-04T02:46:28.800Z,5.33
2024-02-04T02:48:55.421Z,5.30
2024-02-04T02:51:22.003Z,4.93
2024-02-04T02:53:48.484Z,5.60
2024-02-04T02:56:15.202Z,5.63
2024-02-04T02:58:41.685Z,5.10
2024-02-04T03:01:08.415Z,5.70
2024-02-04T03:03:35.435Z,5.57
2024-02-04T03:06:02.063Z,5.00
2024-02-04T03:08:28.646Z,5.00
2024-02-04T03:10:55.169Z,5.23
2024-02-04T03:13:21.760Z,4.60
2024-02-04T03:15:48.444Z,5.40
2024-02-04T03:18:14.983Z,5.07
2024-02-04T03:20:41.572Z,5.27
2024-02-04T03:23:08.202Z,5.73
2024-02-04T03:25:34.761Z,4.70
2024-02-04T03:28:01.375Z,4.70
2024-02-04T03:30:28.057Z,5.67
2024-02-04T03:32:55.030Z,5.30
2024-02-04T03:35:21.641Z,4.80
2024-02-04T03:37:48.181Z,5.37
2024-02-04T03:40:14.854Z,5.23
2024-02-04T03:42:41.858Z,5.40
2024-02-04T03:45:08.776Z,4.70
2024-02-04T03:47:35.317Z,5.33
2024-02-04T03:50:02.033Z,5.20
2024-02-04T03:52:28.678Z,5.13
2024-02-04T03:54:55.170Z,6.23
2024-02-04T03:57:21.731Z,5.67
2024-02-04T03:59:48.340Z,5.87
2024-02-04T04:02:14.900Z,6.07
2024-02-04T04:04:48.788Z,7.23
2024-02-04T04:07:15.674Z,7.20
2024-02-04T04:09:42.308Z,6.80
2024-02-04T04:12:08.938Z,7.40
2024-02-04T04:14:35.452Z,7.50
2024-02-04T04:17:01.929Z,8.33
2024-02-04T04:19:28.737Z,7.87
2024-02-04T04:21:55.670Z,8.50
2024-02-04T04:24:23.467Z,9.20
2024-02-04T04:26:50.086Z,9.87
2024-02-04T04:29:16.591Z,9.27
2024-02-04T04:31:43.099Z,10.23
2024-02-04T04:34:09.820Z,9.50
2024-02-04T04:36:36.445Z,11.70
2024-02-04T04:39:03.169Z,10.20
2024-02-04T04:41:29.751Z,10.43
2024-02-04T04:43:56.336Z,11.27
2024-02-04T04:46:22.853Z,11.83
2024-02-04T04:48:49.553Z,11.87
2024-02-04T04:51:16.235Z,11.43
2024-02-04T04:53:42.800Z,10.80
2024-02-04T04:56:09.333Z,11.13
2024-02-04T04:58:38.727Z,10.10
2024-02-04T05:01:06.808Z,12.47
2024-02-04T05:03:33.832Z,11.70
2024-02-04T05:06:02.152Z,11.37
2024-02-04T05:08:28.723Z,12.10
2024-02-04T05:10:55.195Z,12.73
2024-02-04T05:13:21.767Z,12.50
2024-02-04T05:15:48.506Z,12.03
2024-02-04T05:18:15.189Z,12.77
2024-02-04T05:20:41.841Z,12.50
2024-02-04T05:23:08.990Z,13.07
2024-02-04T05:25:35.559Z,13.93
2024-02-04T05:28:02.133Z,13.37
2024-02-04T05:30:28.682Z,12.63
2024-02-04T05:32:55.235Z,12.70
2024-02-04T05:35:21.853Z,12.23
2024-02-04T05:37:48.374Z,14.10
2024-02-04T05:40:16.655Z,13.10
2024-02-04T05:42:43.747Z,13.27
2024-02-04T05:45:10.401Z,13.60
2024-02-04T05:47:37.027Z,12.50
2024-02-04T05:50:03.907Z,13.13
2024-02-04T05:52:30.507Z,13.90
2024-02-04T05:54:57.111Z,13.10
2024-02-04T05:57:23.757Z,14.27
2024-02-04T05:59:53.767Z,13.00
2024-02-04T06:02:20.326Z,13.80
2024-02-04T06:04:48.108Z,13.87
2024-02-04T06:07:14.683Z,13.63
2024-02-04T06:09:41.315Z,13.33
2024-02-04T06:12:08.257Z,12.73
2024-02-04T06:14:36.010Z,12.90
2024-02-04T06:17:02.558Z,12.10
2024-02-04T06:19:29.223Z,12.77
2024-02-04T06:21:55.817Z,11.40
2024-02-04T06:24:22.510Z,12.40
2024-02-04T06:26:49.027Z,10.77
2024-02-04T06:29:15.556Z,12.90
2024-02-04T06:31:45.855Z,12.03
2024-02-04T06:34:12.603Z,12.10
2024-02-04T06:36:39.695Z,11.93
2024-02-04T06:39:08.237Z,11.37
2024-02-04T06:41:35.780Z,12.03
2024-02-04T06:44:05.351Z,11.90
2024-02-04T06:46:31.959Z,12.93
2024-02-04T06:48:58.908Z,11.40
2024-02-04T06:51:25.496Z,12.60
2024-02-04T06:53:52.096Z,11.33
2024-02-04T06:56:18.664Z,10.93
2024-02-04T06:58:45.226Z,11.83
2024-02-04T07:01:12.916Z,10.33
2024-02-04T07:03:39.742Z,11.30
2024-02-04T07:06:06.822Z,10.30
2024-02-04T07:08:33.393Z,9.93
2024-02-04T07:11:00.679Z,10.00
2024-02-04T07:13:27.457Z,8.20
2024-02-04T07:15:55.535Z,9.23
2024-02-04T07:18:23.298Z,8.97
2024-02-04T07:20:50.140Z,8.80
2024-02-04T07:23:16.726Z,7.90
2024-02-04T07:25:43.304Z,7.13
2024-02-04T07:28:10.239Z,7.17
2024-02-04T07:30:36.858Z,6.57
2024-02-04T07:33:03.602Z,6.90
2024-02-04T07:35:30.254Z,6.50
2024-02-04T07:37:56.789Z,5.90
2024-02-04T07:40:23.359Z,5.40
2024-02-04T07:42:50.039Z,5.60
2024-02-04T07:45:16.826Z,5.17
2024-02-04T07:47:43.360Z,5.20
2024-02-04T07:50:10.208Z,5.67
2024-02-04T07:52:36.925Z,5.50
2024-02-04T07:55:03.527Z,5.07
2024-02-04T07:57:30.196Z,4.70
2024-02-04T07:59:56.922Z,4.40
2024-02-04T08:02:23.514Z,4.43
2024-02-04T08:04:50.152Z,4.10
2024-02-04T08:07:18.669Z,4.10
2024-02-04T08:09:46.553Z,4.30
2024-02-04T08:12:13.139Z,5.00
2024-02-04T08:14:39.738Z,4.00
2024-02-04T08:17:06.261Z,4.90
2024-02-04T08:19:32.958Z,5.50
2024-02-04T08:21:59.925Z,5.43
2024-02-04T08:24:26.557Z,5.83
2024-02-04T08:26:54.134Z,5.63
2024-02-04T08:29:20.604Z,5.80
2024-02-04T08:31:47.133Z,5.33
2024-02-04T08:34:13.735Z,5.40
2024-02-04T08:36:40.370Z,4.80
2024-02-04T08:39:06.941Z,5.07
2024-02-04T08:41:33.447Z,4.40
2024-02-04T08:44:03.137Z,4.30
2024-02-04T08:46:30.914Z,4.33
2024-02-04T08:48:57.593Z,4.30
2024-02-04T08:51:24.170Z,3.67
2024-02-04T08:53:50.708Z,4.33
2024-02-04T08:56:17.233Z,4.10
2024-02-04T08:58:44.803Z,4.83
2024-02-04T09:01:11.442Z,4.97
2024-02-04T09:03:38.303Z,4.83
2024-02-04T09:06:05.458Z,5.43
2024-02-04T09:08:32.042Z,5.17
2024-02-04T09:10:58.671Z,5.43
2024-02-04T09:13:25.230Z,6.00
2024-02-04T09:15:52.249Z,5.23
2024-02-04T09:18:18.860Z,5.50
2024-02-04T09:20:46.222Z,5.90
2024-02-04T09:23:13.231Z,5.17
2024-02-04T09:25:40.164Z,6.03
2024-02-04T09:28:06.901Z,5.60
2024-02-04T09:30:33.518Z,5.10
2024-02-04T09:33:00.371Z,4.53
2024-02-04T09:35:27.602Z,4.50
2024-02-04T09:37:54.280Z,5.20
2024-02-04T09:40:21.107Z,5.03
2024-02-04T09:42:47.832Z,4.53
2024-02-04T09:45:16.069Z,4.03
2024-02-04T09:47:44.969Z,4.60
2024-02-04T09:50:11.847Z,4.60
2024-02-04T09:52:44.449Z,4.87
2024-02-04T09:55:14.162Z,3.87
2024-02-04T09:57:40.771Z,4.40
2024-02-04T10:00:09.593Z,4.70
2024-02-04T10:02:37.104Z,4.70
2024-02-04T10:05:04.866Z,5.10
2024-02-04T10:07:32.043Z,4.83
2024-02-04T10:09:58.738Z,4.60
2024-02-04T10:12:25.343Z,5.07
2024-02-04T10:14:51.833Z,6.13
2024-02-04T10:17:18.370Z,5.60
2024-02-04T10:19:45.031Z,5.30
2024-02-04T10:22:11.982Z,4.93
2024-02-04T10:24:38.673Z,4.77
2024-02-04T10:27:05.464Z,5.20
2024-02-04T10:29:32.108Z,5.50
2024-02-04T10:31:59.115Z,5.83
2024-02-04T10:34:30.997Z,5.53
2024-02-04T10:36:58.374Z,5.20
2024-02-04T10:39:24.975Z,5.47
2024-02-04T10:41:53.653Z,5.30
2024-02-04T10:44:25.185Z,7.60
2024-02-04T10:46:52.946Z,6.20
2024-02-04T10:49:20.940Z,5.97
2024-02-04T10:51:48.493Z,5.50
2024-02-04T10:54:22.050Z,5.00
2024-02-04T10:56:56.912Z,5.77
2024-02-04T10:59:24.164Z,5.43
2024-02-04T11:01:51.383Z,12.03
2024-02-04T11:04:19.540Z,5.90
2024-02-04T11:06:46.747Z,6.10
2024-02-04T11:09:15.634Z,6.10
2024-02-04T11:11:43.253Z,6.37
2024-02-04T11:14:13.618Z,7.10
2024-02-04T11:16:46.228Z,6.40
2024-02-04T11:19:40.817Z,6.20
2024-02-04T11:22:16.419Z,6.57
2024-02-04T11:25:04.313Z,6.73
2024-02-04T11:27:31.536Z,7.03
2024-02-04T11:29:58.357Z,7.70
2024-02-04T11:32:26.682Z,13.23
2024-02-04T11:34:56.427Z,6.43
2024-02-04T11:37:25.565Z,5.60
2024-02-04T11:39:53.506Z,6.10
2024-02-04T11:42:21.553Z,5.47
2024-02-04T11:44:48.261Z,6.60
2024-02-04T11:47:25.823Z,6.60
2024-02-04T11:49:59.893Z,5.80
2024-02-04T11:52:29.861Z,5.50
2024-02-04T11:54:57.002Z,5.60
2024-02-04T11:57:24.633Z,5.77
2024-02-04T11:59:53.588Z,5.67
2024-02-04T12:02:21.328Z,5.33
2024-02-04T12:04:49.542Z,5.57
2024-02-04T12:07:16.920Z,5.87
2024-02-04T12:09:44.186Z,4.70
2024-02-04T12:12:10.793Z,5.03
2024-02-04T12:14:37.901Z,4.97
2024-02-04T12:17:11.722Z,5.00
2024-02-04T12:19:43.979Z,5.20
2024-02-04T12:22:12.152Z,5.10
2024-02-04T12:24:40.137Z,5.60
2024-02-04T12:27:07.056Z,5.53
2024-02-04T12:29:33.828Z,4.83
2024-02-04T12:32:01.497Z,5.27
2024-02-04T12:34:28.533Z,4.73
2024-02-04T12:37:00.433Z,5.27
2024-02-04T12:39:27.573Z,5.23
2024-02-04T12:41:54.669Z,4.90
2024-02-04T12:44:21.379Z,5.13
2024-02-04T12:46:52.830Z,5.10
2024-02-04T12:49:22.474Z,3.80
2024-02-04T12:51:49.636Z,3.70
2024-02-04T12:54:16.560Z,3.40
2024-02-04T12:56:46.495Z,3.37
2024-02-04T12:59:24.612Z,3.40
2024-02-04T13:02:07.297Z,4.30
2024-02-04T13:04:38.868Z,4.43
2024-02-04T13:07:18.487Z,3.13
2024-02-04T13:09:48.184Z,3.70
2024-02-04T13:12:16.851Z,3.37
2024-02-04T13:14:43.755Z,3.07
2024-02-04T13:17:10.884Z,3.20
2024-02-04T13:19:39.509Z,3.17
2024-02-04T13:22:15.791Z,3.10
2024-02-04T13:24:42.714Z,3.33
2024-02-04T13:27:09.406Z,3.53
2024-02-04T13:29:36.482Z,3.80
2024-02-04T13:32:03.174Z,3.90
2024-02-04T13:34:29.855Z,4.57
2024-02-04T13:36:56.814Z,4.40
2024-02-04T13:39:23.656Z,4.70
2024-02-04T13:41:50.249Z,4.37
2024-02-04T13:44:16.898Z,5.00
2024-02-04T13:46:44.253Z,4.80
2024-02-04T13:49:13.529Z,4.60
2024-02-04T13:51:44.698Z,4.30
2024-02-04T13:54:16.879Z,4.63
2024-02-04T13:56:44.385Z,4.83
2024-02-04T13:59:11.068Z,4.80
2024-02-04T14:01:37.653Z,5.40
2024-02-04T14:04:04.445Z,4.77
2024-02-04T14:06:31.071Z,4.60
2024-02-04T14:08:57.577Z,4.50
2024-02-04T14:11:24.104Z,4.77
2024-02-04T14:13:50.640Z,4.80
2024-02-04T14:16:17.451Z,5.57
2024-02-04T14:18:47.334Z,5.00
2024-02-04T14:21:16.786Z,4.70
2024-02-04T14:23:44.191Z,4.33
2024-02-04T14:26:21.291Z,4.67
2024-02-04T14:28:48.060Z,4.33
2024-02-04T14:31:14.913Z,4.57
2024-02-04T14:33:42.581Z,4.70
2024-02-04T14:36:09.743Z,5.40
2024-02-04T14:38:38.846Z,4.60
2024-02-04T14:41:05.917Z,4.77
2024-02-04T14:43:32.503Z,4.10
2024-02-04T14:45:59.854Z,5.53
2024-02-04T14:48:26.758Z,7.43
2024-02-04T14:50:54.369Z,5.00
2024-02-04T14:53:21.270Z,3.97
2024-02-04T14:55:47.899Z,3.77
2024-02-04T14:58:14.540Z,4.23
2024-02-04T15:00:41.274Z,3.63
2024-02-04T15:03:08.200Z,3.50
2024-02-04T15:05:34.672Z,3.50
2024-02-04T15:08:01.667Z,3.77
2024-02-04T15:10:28.260Z,3.23
2024-02-04T15:12:55.260Z,3.77
2024-02-04T15:15:22.370Z,5.50
2024-02-04T15:17:49.156Z,3.43
2024-02-04T15:20:19.481Z,3.30
2024-02-04T15:22:46.662Z,3.07
2024-02-04T15:25:16.115Z,3.23
2024-02-04T15:27:45.193Z,3.40
2024-02-04T15:30:15.292Z,3.73
2024-02-04T15:32:42.196Z,3.03
2024-02-04T15:35:09.344Z,3.03
2024-02-04T15:37:36.580Z,2.67
2024-02-04T15:40:03.293Z,2.90
2024-02-04T15:42:29.848Z,3.00
2024-02-04T15:44:56.372Z,2.60
2024-02-04T15:47:24.630Z,6.17
2024-02-04T15:49:51.611Z,3.43
2024-02-04T15:52:18.394Z,3.00
2024-02-04T15:54:45.295Z,2.80
2024-02-04T15:57:16.108Z,2.67
2024-02-04T15:59:56.152Z,3.60
2024-02-04T16:02:22.937Z,2.80
2024-02-04T16:04:52.207Z,2.33
2024-02-04T16:07:21.329Z,2.90
2024-02-04T16:09:49.717Z,2.80
2024-02-04T16:12:20.865Z,3.10
2024-02-04T16:14:50.284Z,2.83
2024-02-04T16:17:19.491Z,3.30
2024-02-04T16:19:46.687Z,3.00
2024-02-04T16:22:15.720Z,2.80
2024-02-04T16:24:46.112Z,2.60
2024-02-04T16:27:12.777Z,2.60
2024-02-04T16:29:39.332Z,2.30
2024-02-04T16:32:05.917Z,2.40
2024-02-04T16:34:34.862Z,2.67
2024-02-04T16:37:03.540Z,2.37
2024-02-04T16:39:30.517Z,2.57
2024-02-04T16:41:57.171Z,2.63
2024-02-04T16:44:24.073Z,2.87
2024-02-04T16:46:53.910Z,2.53
2024-02-04T16:49:21.387Z,3.00
2024-02-04T16:51:48.832Z,3.07
2024-02-04T16:54:19.146Z,2.43
2024-02-04T16:56:49.831Z,2.43
2024-02-04T16:59:16.600Z,2.50
2024-02-04T17:04:10.427Z,2.40
2024-02-04T17:06:37.380Z,2.70
2024-02-04T17:09:15.394Z,2.50
2024-02-04T17:11:44.274Z,2.13
2024-02-04T17:14:15.158Z,2.20
2024-02-04T17:16:41.788Z,3.30
2024-02-04T17:19:23.629Z,2.40
2024-02-04T17:21:56.908Z,2.60
2024-02-04T17:24:29.564Z,2.57
2024-02-04T17:26:57.546Z,2.40
2024-02-04T17:29:24.626Z,2.70
2024-02-04T17:31:51.397Z,2.50
2024-02-04T17:34:18.354Z,2.77
2024-02-04T17:36:45.048Z,2.97
2024-02-04T17:39:13.142Z,2.77
2024-02-04T17:41:40.720Z,2.80
2024-02-04T17:44:07.448Z,3.30
2024-02-04T17:46:34.093Z,3.07
2024-02-04T17:49:00.812Z,2.50
2024-02-04T17:51:29.659Z,3.20
2024-02-04T17:53:59.020Z,3.07
2024-02-04T17:56:25.550Z,3.20
2024-02-04T17:58:53.489Z,3.57
2024-02-04T18:01:24.079Z,3.20
2024-02-04T18:03:51.236Z,3.90
2024-02-04T18:06:17.996Z,3.00
2024-02-04T18:08:44.487Z,3.50
2024-02-04T18:11:21.457Z,2.93
2024-02-04T18:13:48.811Z,3.23
2024-02-04T18:16:15.523Z,3.40
2024-02-04T18:18:44.135Z,3.80
2024-02-04T18:21:21.805Z,3.33
2024-02-04T18:23:49.374Z,3.50
2024-02-04T18:26:27.384Z,4.20
2024-02-04T18:28:59.128Z,4.10
2024-02-04T18:31:30.283Z,3.43
2024-02-04T18:33:57.978Z,3.80
2024-02-04T18:36:25.565Z,3.87
2024-02-04T18:38:53.770Z,4.03
2024-02-04T18:41:21.272Z,4.20
2024-02-04T18:43:48.852Z,4.10
2024-02-04T18:46:16.408Z,4.10
2024-02-04T18:48:44.450Z,4.07
2024-02-04T18:51:11.206Z,4.10
2024-02-04T18:53:38.333Z,4.27
2024-02-04T18:56:10.158Z,3.87
2024-02-04T18:58:36.733Z,4.50
2024-02-04T19:01:04.284Z,4.17
2024-02-04T19:03:31.138Z,4.10
2024-02-04T19:05:57.904Z,4.80
2024-02-04T19:08:27.161Z,4.37
2024-02-04T19:10:54.047Z,4.03
2024-02-04T19:13:20.947Z,4.40
2024-02-04T19:15:47.622Z,4.13
2024-02-04T19:18:14.408Z,5.00
2024-02-04T19:20:41.391Z,4.47
2024-02-04T19:23:08.338Z,4.40
2024-02-04T19:25:34.931Z,4.10
2024-02-04T19:28:03.281Z,4.63
2024-02-04T19:30:30.304Z,3.50
2024-02-04T19:32:57.011Z,3.87
2024-02-04T19:35:28.511Z,3.93
2024-02-04T19:37:56.106Z,3.70
2024-02-04T19:40:23.548Z,4.17
2024-02-04T19:42:54.441Z,4.00
2024-02-04T19:45:21.421Z,3.70
2024-02-04T19:47:49.449Z,3.20
2024-02-04T19:50:16.724Z,4.50
2024-02-04T19:52:45.542Z,4.00
2024-02-04T19:55:13.653Z,8.00
2024-02-04T19:57:40.489Z,3.90
2024-02-04T20:00:09.648Z,4.30
2024-02-04T20:02:36.842Z,4.20
2024-02-04T20:05:03.677Z,4.00
2024-02-04T20:07:31.015Z,3.80
2024-02-04T20:09:58.884Z,4.00
2024-02-04T20:12:28.596Z,4.30
2024-02-04T20:14:55.278Z,4.03
2024-02-04T20:17:21.965Z,3.80
2024-02-04T20:19:48.650Z,3.50
2024-02-04T20:22:16.184Z,3.43
2024-02-04T20:24:43.256Z,3.87
2024-02-04T20:27:10.382Z,3.83
2024-02-04T20:29:37.033Z,5.40
2024-02-04T20:32:04.543Z,2.90
2024-02-04T20:34:31.213Z,2.90
2024-02-04T20:36:58.350Z,3.83
2024-02-04T20:39:25.805Z,3.27
2024-02-04T20:41:59.097Z,3.03
2024-02-04T20:44:28.445Z,3.10
2024-02-04T20:46:55.396Z,2.63
2024-02-04T20:49:22.170Z,2.77
2024-02-04T20:51:48.764Z,2.70
2024-02-04T20:54:15.531Z,3.37
2024-02-04T20:56:45.054Z,7.00
2024-02-04T20:59:13.161Z,2.70
2024-02-04T21:01:40.162Z,2.67
2024-02-04T21:04:06.968Z,2.50
2024-02-04T21:06:36.237Z,2.73
2024-02-04T21:09:04.902Z,2.63
2024-02-04T21:11:31.748Z,2.30
2024-02-04T21:13:59.482Z,2.60
2024-02-04T21:16:26.556Z,2.70
2024-02-04T21:18:53.373Z,2.60
2024-02-04T21:21:20.184Z,2.60
2024-02-04T21:23:46.879Z,2.77
2024-02-04T21:26:13.454Z,3.00
2024-02-04T21:28:40.863Z,2.80
2024-02-04T21:31:08.758Z,2.43
2024-02-04T21:33:39.164Z,2.37
2024-02-04T21:36:12.649Z,2.10
2024-02-04T21:38:43.093Z,2.30
2024-02-04T21:41:09.674Z,2.40
2024-02-04T21:43:36.306Z,2.50
2024-02-04T21:46:03.737Z,2.90
2024-02-04T21:48:30.615Z,2.70
2024-02-04T21:50:57.262Z,2.40
2024-02-04T21:53:23.818Z,2.77
2024-02-04T21:55:50.393Z,2.40
2024-02-04T21:58:17.995Z,2.37
2024-02-04T22:00:44.827Z,5.10
2024-02-04T22:03:11.580Z,3.77
2024-02-04T22:05:39.357Z,2.60
2024-02-04T22:08:06.840Z,2.77
2024-02-04T22:10:34.342Z,2.53
2024-02-04T22:13:01.336Z,2.80
2024-02-04T22:15:28.146Z,2.60
2024-02-04T22:17:56.682Z,2.50
2024-02-04T22:20:24.135Z,2.70
2024-02-04T22:22:50.835Z,2.43
2024-02-04T22:25:17.478Z,4.30
2024-02-04T22:27:44.065Z,3.20
2024-02-04T22:30:11.483Z,2.77
2024-02-04T22:32:38.032Z,2.80
2024-02-04T22:35:05.556Z,3.03
2024-02-04T22:37:32.404Z,2.60
2024-02-04T22:39:59.002Z,3.37
2024-02-04T22:42:25.679Z,3.10
2024-02-04T22:44:52.189Z,3.00
2024-02-04T22:47:19.245Z,3.17
2024-02-04T22:49:46.087Z,2.90
2024-02-04T22:52:12.749Z,3.23
2024-02-04T22:54:39.354Z,3.30
2024-02-04T22:57:06.056Z,3.30
2024-02-04T22:59:32.958Z,5.30
2024-02-04T23:01:59.721Z,4.63
2024-02-04T23:04:26.470Z,3.87
2024-02-04T23:06:53.159Z,3.40
2024-02-04T23:09:19.709Z,3.50
2024-02-04T23:11:46.264Z,3.30
2024-02-04T23:14:12.794Z,3.63
2024-02-04T23:16:39.306Z,3.83
2024-02-04T23:19:06.051Z,3.57
2024-02-04T23:21:32.751Z,3.80
2024-02-04T23:23:59.379Z,3.60
2024-02-04T23:26:25.850Z,3.60
2024-02-04T23:28:52.365Z,3.80
2024-02-04T23:31:19.157Z,5.10
2024-02-04T23:33:46.943Z,3.70
2024-02-04T23:36:14.163Z,4.40
2024-02-04T23:38:40.806Z,4.10
2024-02-04T23:41:08.265Z,4.13
2024-02-04T23:43:34.902Z,8.23
2024-02-04T23:46:02.271Z,5.60
2024-02-04T23:48:29.677Z,4.40
2024-02-04T23:50:56.494Z,4.07
2024-02-04T23:53:23.004Z,4.87
2024-02-04T23:55:49.702Z,3.73
2024-02-04T23:58:16.425Z,5.00
